Nearby METAR Reports

 

KTEB - Teterboro, New Jersey, USA
Distance from station: ENE 2mi, 4km
Updated: 01/17/2019 4:51pm
Few Clouds
Few Clouds
 Wind from SSE
Wind: SSE 3 mph , 6 km/h
Temperature: 30°F , -1°C
Dew Point: 5°F , -15°C
Humidity: 34%
Barometer: 30.31 inHg , 1026.4 hPa
Clouds: Few Clouds
Visibility: 10 miles , 16 km
Cloud details: Few Clouds 12000 ft
2019/01/17 21:51 KTEB 172151Z 16003KT 10SM FEW120 M01/M15 A3031 RMK AO2 SLP264 T10061150
KNYC - Nyc/Central Park, New York, USA
Distance from station: SE 8mi, 13km
Updated: 01/17/2019 4:51pm
Partly cloudy
Partly cloudy
 
Temperature: 30°F , -1°C
Dew Point: 10°F , -12°C
Humidity: 43%
Barometer: 30.33 inHg , 1027.1 hPa
Clouds: Partly cloudy
Visibility: 10 miles , 16 km
Cloud details: Partly cloudy 12000 ft
2019/01/17 21:51 KNYC 172151Z AUTO 10SM SCT120 M01/M12 A3033 RMK AO2 SLP265 T10061117 $
 
KCDW - Caldwell, New Jersey, USA
Distance from station: WNW 10mi, 17km
Updated: 01/17/2019 4:53pm
Partly cloudy
Partly cloudy
 Wind from SSE
Wind: SSE 6 mph , 9 km/h
Temperature: 30°F , -1°C
Wind Chill: 24°F , -4°C
Dew Point: 9°F , -13°C
Humidity: 40%
Barometer: 30.31 inHg , 1026.4 hPa
Clouds: Partly cloudy
Visibility: 10 miles , 16 km
Cloud details: Partly cloudy 12000 ft
2019/01/17 21:53 KCDW 172153Z 16005KT 10SM SCT120 M01/M13 A3031 RMK AO2 SLP270 T10111133
KLGA - Nyc/La Guardia, New York, USA
Distance from station: ESE 12mi, 19km
Updated: 01/17/2019 4:51pm
Overcast
Overcast
 Wind from E
Wind: E 7 mph , 11 km/h
Temperature: 30°F , -1°C
Wind Chill: 23°F , -5°C
Dew Point: 5°F , -15°C
Humidity: 34%
Barometer: 30.32 inHg , 1026.8 hPa
Clouds: Overcast
Visibility: 10 miles , 16 km
Cloud details: Mostly cloudy 13000 ft
Overcast 25000 ft
2019/01/17 21:51 KLGA 172151Z 08006KT 10SM BKN130 OVC250 M01/M15 A3032 RMK AO2 SLP267 T10061150
 
KEWR - Newark, New Jersey, USA
Distance from station: SSW 12mi, 20km
Updated: 01/17/2019 4:51pm
Overcast
Overcast
 Wind from S
Wind: S 8 mph , 13 km/h
Temperature: 30°F , -1°C
Wind Chill: 22°F , -6°C
Dew Point: 12°F , -11°C
Humidity: 47%
Barometer: 30.32 inHg , 1026.8 hPa
Clouds: Overcast
Visibility: 10 miles , 16 km
Cloud details: Mostly cloudy 12000 ft
Mostly cloudy 15000 ft
Overcast 23000 ft
2019/01/17 21:51 KEWR 172151Z 18007KT 10SM BKN120 BKN150 OVC230 M01/M11 A3032 RMK AO2 SLP266 T10111106
KMMU - Morristown Muni, New Jersey, USA
Distance from station: WSW 18mi, 29km
Updated: 01/17/2019 4:45pm
Mostly cloudy
Mostly cloudy
 Wind from SSE
Wind: SSE 5 mph , 7 km/h
Temperature: 30°F , -1°C
Wind Chill: 25°F , -4°C
Dew Point: 18°F , -8°C
Humidity: 59%
Barometer: 30.30 inHg , 1026.1 hPa
Clouds: Mostly cloudy
Visibility: 10 miles , 16 km
Cloud details: Mostly cloudy 11000 ft
2019/01/17 21:45 KMMU 172145Z 16004KT 10SM BKN110 M01/M08 A3030
 
KJFK - Nyc/Jfk Arpt, New York, USA
Distance from station: SE 23mi, 36km
Updated: 01/17/2019 4:51pm
Mostly cloudy
Mostly cloudy
 Wind from SE
Wind: SE 8 mph , 13 km/h
Temperature: 28°F , -2°C
Wind Chill: 20°F , -7°C
Dew Point: 12°F , -11°C
Humidity: 51%
Barometer: 30.33 inHg , 1027.1 hPa
Clouds: Mostly cloudy
Visibility: 10 miles , 16 km
Cloud details: Few Clouds 5000 ft
Partly cloudy 12000 ft
Mostly cloudy 14000 ft
Mostly cloudy 25000 ft
2019/01/17 21:51 KJFK 172151Z 14007KT 10SM FEW050 SCT120 BKN140 BKN250 M02/M11 A3033 RMK AO2 SLP271 T10171106
KHPN - White Plains, New York, USA
Distance from station: NE 25mi, 40km
Updated: 01/17/2019 4:56pm
Partly cloudy
Partly cloudy
 Wind from S
Wind: S 5 mph , 7 km/h
Temperature: 27°F , -3°C
Wind Chill: 21°F , -6°C
Dew Point: 9°F , -13°C
Humidity: 46%
Barometer: 30.29 inHg , 1025.7 hPa
Clouds: Partly cloudy
Visibility: 10 miles , 16 km
Cloud details: Partly cloudy 12000 ft
2019/01/17 21:56 KHPN 172156Z 17004KT 10SM SCT120 M03/M13 A3029 RMK AO2 SLP268 T10281133 $
 
KSMQ - Somerville, New Jersey, USA
Distance from station: WSW 34mi, 55km
Updated: 01/17/2019 4:53pm
Overcast
Overcast
 Wind from SE
Wind: SE 5 mph , 7 km/h
Temperature: 30°F , -1°C
Wind Chill: 25°F , -4°C
Dew Point: 10°F , -12°C
Humidity: 43%
Barometer: 30.28 inHg , 1025.4 hPa
Clouds: Overcast
Visibility: 10 miles , 16 km
Cloud details: Mostly cloudy 9000 ft
Overcast 11000 ft
2019/01/17 21:53 KSMQ 172153Z AUTO 13004KT 10SM BKN090 OVC110 M01/M12 A3028 RMK AO2 SLP256 T10061117
K12N - Andover, New Jersey, USA
Distance from station: WNW 36mi, 57km
Updated: 01/17/2019 4:54pm

 Wind from varies
Wind: varies 3 mph , 6 km/h
Temperature: 28°F , -2°C
Dew Point: 1°F , -17°C
Humidity: 31%
Barometer: 30.25 inHg , 1024.4 hPa
2019/01/17 21:54 K12N 172154Z AUTO VRB03KT M02/M17 A3025 RMK AO1 SLP259 T10171172
 
KFRG - Farmingdale, New York, USA
Distance from station: ESE 36mi, 58km
Updated: 01/17/2019 4:53pm
Few Clouds
Few Clouds
 Wind from SSE
Wind: SSE 15 mph , 24 km/h
Temperature: 28°F , -2°C
Wind Chill: 16°F , -9°C
Dew Point: 7°F , -14°C
Humidity: 40%
Barometer: 30.32 inHg , 1026.8 hPa
Clouds: Few Clouds
Visibility: 10 miles , 16 km
Cloud details: Few Clouds 12000 ft
2019/01/17 21:53 KFRG 172153Z 15013KT 10SM FEW120 M02/M14 A3032 RMK AO2 SLP269 T10221139
KFWN - Sussex, New Jersey, USA
Distance from station: NW 37mi, 60km
Updated: 01/17/2019 4:53pm
Clear
Clear
 Wind from ENE
Wind: ENE 5 mph , 7 km/h
Temperature: 27°F , -3°C
Wind Chill: 21°F , -6°C
Dew Point: 10°F , -12°C
Humidity: 50%
Barometer: 30.26 inHg , 1024.7 hPa
Clouds: Clear
Visibility: 10 miles , 16 km
2019/01/17 21:53 KFWN 172153Z AUTO 06004KT 10SM CLR M03/M12 A3026 RMK AO2 SLP251 T10281117
 
KSWF - Newburgh/Stewart, New York, USA
Distance from station: 0 45mi, 72km
Updated: 01/17/2019 4:45pm
Mostly cloudy
Mostly cloudy
 Wind from calm
Wind: Calm
Temperature: 25°F , -4°C
Dew Point: 5°F , -15°C
Humidity: 42%
Barometer: 30.28 inHg , 1025.4 hPa
Clouds: Mostly cloudy
Visibility: 20 miles , 32 km
Cloud details: Mostly cloudy 12000 ft
2019/01/17 21:45 KSWF 172145Z 00000KT 20SM BKN120 M04/M15 A3028
KMGJ - Montgomery, New York, USA
Distance from station: NNW 47mi, 75km
Updated: 01/17/2019 4:54pm
Mostly cloudy
Mostly cloudy
 Wind from E
Wind: E 3 mph , 6 km/h
Temperature: 27°F , -3°C
Dew Point: 3°F , -16°C
Humidity: 36%
Barometer: 30.27 inHg , 1025.1 hPa
Clouds: Mostly cloudy
Visibility: 10 miles , 16 km
Cloud details: Mostly cloudy 11000 ft
2019/01/17 21:54 KMGJ 172154Z AUTO 09003KT 10SM BKN110 M03/M16 A3027 RMK AO2 SLP253 T10331156
 
KBLM - Belmar/Farmdale, New Jersey, USA
Distance from station: S 47mi, 76km
Updated: 01/17/2019 4:56pm
Clear
Clear
 Wind from E
Wind: E 7 mph , 11 km/h
Temperature: 30°F , -1°C
Wind Chill: 23°F , -5°C
Dew Point: 19°F , -7°C
Humidity: 64%
Barometer: 30.31 inHg , 1026.4 hPa
Clouds: Clear
Visibility: 10 miles , 16 km
2019/01/17 21:56 KBLM 172156Z AUTO 10006KT 10SM CLR M01/M07 A3031 RMK AO2 SLP270 T10111067 FZRANO
KDXR - Danbury, Connecticut, USA
Distance from station: NE 47mi, 76km
Updated: 01/17/2019 4:53pm
Clear
Clear
 Wind from SSE
Wind: SSE 3 mph , 6 km/h
Temperature: 28°F , -2°C
Dew Point: -4°F , -20°C
Humidity: 24%
Barometer: 30.28 inHg , 1025.4 hPa
Clouds: Clear
Visibility: 10 miles , 16 km
2019/01/17 21:53 KDXR 172153Z 16003KT 10SM CLR M02/M20 A3028 RMK AO2 SLP260 T10221200
 
KISP - Islip, New York, USA
Distance from station: E 52mi, 83km
Updated: 01/17/2019 4:56pm
Overcast
Overcast
 Wind from SE
Wind: SE 8 mph , 13 km/h
Temperature: 28°F , -2°C
Wind Chill: 20°F , -7°C
Dew Point: 5°F , -15°C
Humidity: 37%
Barometer: 30.30 inHg , 1026.1 hPa
Clouds: Overcast
Visibility: 10 miles , 16 km
Cloud details: Partly cloudy 12000 ft
Overcast 25000 ft
2019/01/17 21:56 KISP 172156Z 14007KT 10SM SCT120 OVC250 M02/M15 A3030 RMK SLP263 T10171150
KBDR - Bridgeport, Connecticut, USA
Distance from station: ENE 54mi, 87km
Updated: 01/17/2019 4:52pm
Few Clouds
Few Clouds
 Wind from ESE
Wind: ESE 5 mph , 7 km/h
Temperature: 28°F , -2°C
Wind Chill: 22°F , -6°C
Dew Point: 7°F , -14°C
Humidity: 40%
Barometer: 30.31 inHg , 1026.4 hPa
Clouds: Few Clouds
Visibility: 10 miles , 16 km
Cloud details: Few Clouds 12000 ft
2019/01/17 21:52 KBDR 172152Z 11004KT 10SM FEW120 M02/M14 A3031 RMK AO2 SLP262 T10171139
 
KTTN - Trenton, New Jersey, USA
Distance from station: SW 55mi, 88km
Updated: 01/17/2019 4:53pm
Clear
Clear
 Wind from ESE
Wind: ESE 9 mph , 15 km/h
Temperature: 32°F , 0°C
Wind Chill: 24°F , -4°C
Dew Point: 10°F , -12°C
Humidity: 40%
Barometer: 30.29 inHg , 1025.7 hPa
Clouds: Clear
Visibility: 10 miles , 16 km
2019/01/17 21:53 KTTN 172153Z 12008KT 10SM CLR 00/M12 A3029 RMK AO2 SLP252 T00001122
KPOU - Poughkeepsie, New York, USA
Distance from station: N 55mi, 89km
Updated: 01/17/2019 4:53pm
Clear
Clear
 Wind from NNW
Wind: NNW 3 mph , 6 km/h
Temperature: 28°F , -2°C
Dew Point: -0°F , -18°C
Humidity: 29%
Barometer: 30.29 inHg , 1025.7 hPa
Clouds: Clear
Visibility: 10 miles , 16 km
2019/01/17 21:53 KPOU 172153Z 33003KT 10SM CLR M02/M18 A3029 RMK AO2 SLP256 T10171178
 
KNEL - Lakehurst Nas, New Jersey, USA
Distance from station: SSW 59mi, 95km
Updated: 01/17/2019 5:00pm
Clear
Clear
 Wind from calm
Wind: Calm
Barometer: 30.29 inHg , 1025.7 hPa
Clouds: Clear
2019/01/17 22:00 KNEL 172200Z 00000KT CLR A3029 RMK AO2 SLPNO PNO $
KWRI - Wrightst/Mcguire, New Jersey, USA
Distance from station: SSW 63mi, 102km
Updated: 01/17/2019 4:56pm
Overcast
Overcast
 Wind from ESE
Wind: ESE 5 mph , 7 km/h
Temperature: 30°F , -1°C
Wind Chill: 25°F , -4°C
Dew Point: 18°F , -8°C
Humidity: 59%
Barometer: 30.27 inHg , 1025.1 hPa
Clouds: Overcast
Visibility: 10 miles , 16 km
Cloud details: Overcast 13000 ft
2019/01/17 21:56 KWRI 172156Z AUTO 11004KT 10SM OVC130 M01/M08 A3027 RMK AO2 SLP252 T10121084 $
 
KHWV - Shirley, New York, USA
Distance from station: E 64mi, 103km
Updated: 01/17/2019 4:56pm
Clear
Clear
 Wind from SE
Wind: SE 6 mph , 9 km/h
Temperature: 28°F , -2°C
Wind Chill: 21°F , -6°C
Dew Point: 3°F , -16°C
Humidity: 34%
Barometer: 30.32 inHg , 1026.8 hPa
Clouds: Clear
Visibility: 10 miles , 16 km
2019/01/17 21:56 KHWV 172156Z AUTO 14005KT 10SM CLR M02/M16 A3032 RMK AO2 SLP267 T10221161
KMJX - Toms River, New Jersey, USA
Distance from station: S 64mi, 104km
Updated: 01/17/2019 4:56pm
Clear
Clear
 Wind from calm
Wind: Calm
Temperature: 30°F , -1°C
Dew Point: 21°F , -6°C
Humidity: 69%
Barometer: 30.31 inHg , 1026.4 hPa
Clouds: Clear
Visibility: 10 miles , 16 km
2019/01/17 21:56 KMJX 172156Z AUTO 00000KT 10SM CLR M01/M06 A3031 RMK AO2 SLP269 T10111061 FZRANO
 
KDYL - Doylestown, Pennsylvania, USA
Distance from station: SW 65mi, 104km
Updated: 01/17/2019 4:54pm
Clear
Clear
 Wind from calm
Wind: Calm
Temperature: 30°F , -1°C
Dew Point: 5°F , -15°C
Humidity: 34%
Barometer: 30.27 inHg , 1025.1 hPa
Clouds: Clear
Visibility: 10 miles , 16 km
2019/01/17 21:54 KDYL 172154Z AUTO 00000KT 10SM CLR M01/M15 A3027 RMK AO2 SLP260 T10111150
KOXC - Oxford/Waterbury, Connecticut, USA
Distance from station: NE 65mi, 105km
Updated: 01/17/2019 4:51pm
Clear
Clear
 Wind from S
Wind: S 3 mph , 6 km/h
Temperature: 27°F , -3°C
Dew Point: 5°F , -15°C
Humidity: 39%
Barometer: 30.26 inHg , 1024.7 hPa
Clouds: Clear
Visibility: 10 miles , 16 km
2019/01/17 21:51 KOXC 172151Z 18003KT 10SM CLR M03/M15 A3026 RMK AO2 SLP272 T10281150
 
KMSV - Monticello, New York, USA
Distance from station: NNW 69mi, 111km
Updated: 01/17/2019 4:56pm
Clear
Clear
 Wind from ESE
Wind: ESE 9 mph , 15 km/h
Temperature: 25°F , -4°C
Wind Chill: 16°F , -9°C
Dew Point: 5°F , -15°C
Humidity: 42%
Barometer: 30.19 inHg , 1022.4 hPa
Clouds: Clear
Visibility: 10 miles , 16 km
2019/01/17 21:56 KMSV 172156Z AUTO 12008KT 10SM CLR M04/M15 A3019 RMK AO2 SLP248 T10441150 FZRANO
KHVN - New Haven/Tweed, Connecticut, USA
Distance from station: ENE 70mi, 112km
Updated: 01/17/2019 4:53pm
Mostly cloudy
Mostly cloudy
 Wind from SSE
Wind: SSE 3 mph , 6 km/h
Temperature: 30°F , -1°C
Dew Point: 3°F , -16°C
Humidity: 31%
Barometer: 30.30 inHg , 1026.1 hPa
Clouds: Mostly cloudy
Visibility: 10 miles , 16 km
Cloud details: Mostly cloudy 15000 ft
2019/01/17 21:53 KHVN 172153Z 15003KT 10SM BKN150 M01/M16 A3030 RMK AO2 SLP261 T10111156
 
KMPO - Mt. Pocono, Pennsylvania, USA
Distance from station: WNW 70mi, 113km
Updated: 01/17/2019 4:53pm
Overcast
Overcast
 Wind from SE
Wind: SE 8 mph , 13 km/h
Temperature: 21°F , -6°C
Wind Chill: 11°F , -12°C
Dew Point: 1°F , -17°C
Humidity: 42%
Barometer: 30.14 inHg , 1020.7 hPa
Clouds: Overcast
Visibility: 10 miles , 16 km
Cloud details: Overcast 11000 ft
2019/01/17 21:53 KMPO 172153Z AUTO 13007KT 10SM OVC110 M06/M17 A3014 RMK AO2 SLP240 T10561167
KPNE - Philadelphia/Ne, Pennsylvania, USA
Distance from station: SW 72mi, 116km
Updated: 01/17/2019 4:54pm
Clear
Clear
 Wind from SE
Wind: SE 5 mph , 7 km/h
Temperature: 34°F , 1°C
Wind Chill: 29°F , -2°C
Dew Point: 7°F , -14°C
Humidity: 32%
Barometer: 30.31 inHg , 1026.4 hPa
Clouds: Clear
Visibility: 10 miles , 16 km
2019/01/17 21:54 KPNE 172154Z 13004KT 10SM CLR 01/M14 A3031 RMK AO2 SLP263 T00061139
 
KABE - Allentown, Pennsylvania, USA
Distance from station: W 73mi, 117km
Updated: 01/17/2019 4:51pm
Few Clouds
Few Clouds
 Wind from SSE
Wind: SSE 7 mph , 11 km/h
Temperature: 32°F , 0°C
Wind Chill: 25°F , -4°C
Dew Point: 3°F , -16°C
Humidity: 29%
Barometer: 30.27 inHg , 1025.1 hPa
Clouds: Few Clouds
Visibility: 10 miles , 16 km
Cloud details: Few Clouds 12000 ft
2019/01/17 21:51 KABE 172151Z 16006KT 10SM FEW120 00/M16 A3027 RMK AO2 SLP255 T00001161
KUKT - Quakertown Arp, Pennsylvania, USA
Distance from station: WSW 74mi, 119km
Updated: 01/17/2019 5:00pm
Few Clouds
Few Clouds
 Wind from SE
Wind: SE 5 mph , 7 km/h
Temperature: 28°F , -2°C
Wind Chill: 22°F , -6°C
Dew Point: 3°F , -16°C
Humidity: 34%
Barometer: 30.27 inHg , 1025.1 hPa
Clouds: Few Clouds
Visibility: 10 miles , 16 km
Cloud details: Few Clouds 12000 ft
2019/01/17 22:00 KUKT 172200Z AUTO 14004KT 10SM FEW120 M02/M16 A3027 RMK A01
 
KVAY - Mount Holly, New Jersey, USA
Distance from station: SSW 75mi, 120km
Updated: 01/17/2019 4:54pm
Clear
Clear
 Wind from SE
Wind: SE 6 mph , 9 km/h
Temperature: 30°F , -1°C
Wind Chill: 24°F , -4°C
Dew Point: 16°F , -9°C
Humidity: 55%
Barometer: 30.30 inHg , 1026.1 hPa
Clouds: Clear
Visibility: 10 miles , 16 km
2019/01/17 21:54 KVAY 172154Z AUTO 13005KT 10SM CLR M01/M09 A3030 RMK AO2 SLP262 T10061094
KXLL - Allentown Queen, Pennsylvania, USA
Distance from station: WSW 76mi, 122km
Updated: 01/17/2019 4:55pm
Clear
Clear
 Wind from SSE
Wind: SSE 8 mph , 13 km/h
Temperature: 32°F , 0°C
Wind Chill: 25°F , -4°C
Dew Point: 5°F , -15°C
Humidity: 32%
Barometer: 30.28 inHg , 1025.4 hPa
Clouds: Clear
Visibility: 10 miles , 16 km
2019/01/17 21:55 KXLL 172155Z AUTO 15007KT 10SM CLR 00/M15 A3028 RMK AO2
 
KFOK - Westhampton Beac, New York, USA
Distance from station: E 77mi, 124km
Updated: 01/17/2019 4:53pm
Partly cloudy
Partly cloudy
 Wind from calm
Wind: Calm
Temperature: 28°F , -2°C
Dew Point: 1°F , -17°C
Humidity: 31%
Barometer: 30.32 inHg , 1026.8 hPa
Clouds: Partly cloudy
Visibility: 10 miles , 16 km
Cloud details: Partly cloudy 12000 ft
2019/01/17 21:53 KFOK 172153Z 00000KT 10SM SCT120 M02/M17 A3032 RMK AO2 SLP268 T10221167
KLOM - Philly Wings F, Pennsylvania, USA
Distance from station: SW 79mi, 128km
Updated: 01/17/2019 4:55pm
Clear
Clear
 Wind from calm
Wind: Calm
Temperature: 30°F , -1°C
Dew Point: 5°F , -15°C
Humidity: 34%
Barometer: 30.30 inHg , 1026.1 hPa
Clouds: Clear
Visibility: 10 miles , 16 km
2019/01/17 21:55 KLOM 172155Z AUTO 00000KT 10SM CLR M01/M15 A3030 RMK AO1
 
KMMK - Meriden, Connecticut, USA
Distance from station: NE 80mi, 128km
Updated: 01/17/2019 4:53pm
Few Clouds
Few Clouds
 Wind from ESE
Wind: ESE 7 mph , 11 km/h
Temperature: 28°F , -2°C
Wind Chill: 21°F , -6°C
Dew Point: -2°F , -19°C
Humidity: 26%
Barometer: 30.30 inHg , 1026.1 hPa
Clouds: Few Clouds
Visibility: 10 miles , 16 km
Cloud details: Few Clouds 12000 ft
2019/01/17 21:53 KMMK 172153Z AUTO 12006KT 10SM FEW120 M02/M19 A3030 RMK AO2 SLP262 T10221189
KPTW - Pottstown, Pennsylvania, USA
Distance from station: WSW 88mi, 141km
Updated: 01/17/2019 4:54pm
Mostly cloudy
Mostly cloudy
 Wind from calm
Wind: Calm
Temperature: 30°F , -1°C
Dew Point: 5°F , -15°C
Humidity: 34%
Barometer: 30.29 inHg , 1025.7 hPa
Clouds: Mostly cloudy
Visibility: 10 miles , 16 km
Cloud details: Mostly cloudy 4500 ft
2019/01/17 21:54 KPTW 172154Z AUTO 00000KT 10SM BKN045 M01/M15 A3029 RMK AO2 SLP257 T10111150 TSNO
 
KSNC - Chester, Connecticut, USA
Distance from station: ENE 90mi, 146km
Updated: 01/17/2019 4:55pm
Clear
Clear
 Wind from S
Wind: S 5 mph , 7 km/h
Temperature: 28°F , -2°C
Wind Chill: 22°F , -6°C
Dew Point: -2°F , -19°C
Humidity: 26%
Barometer: 30.28 inHg , 1025.4 hPa
Clouds: Clear
Visibility: 10 miles , 16 km
2019/01/17 21:55 KSNC 172155Z AUTO 17004KT 10SM CLR M02/M19 A3028 RMK AO2
KPHL - Philadelphia, Pennsylvania, USA
Distance from station: SW 91mi, 146km
Updated: 01/17/2019 4:54pm
Mostly cloudy
Mostly cloudy
 Wind from ESE
Wind: ESE 6 mph , 9 km/h
Temperature: 30°F , -1°C
Wind Chill: 24°F , -4°C
Dew Point: 7°F , -14°C
Humidity: 37%
Barometer: 30.30 inHg , 1026.1 hPa
Clouds: Mostly cloudy
Visibility: 10 miles , 16 km
Cloud details: Few Clouds 16000 ft
Mostly cloudy 25000 ft
2019/01/17 21:54 KPHL 172154Z 12005KT 10SM FEW160 BKN250 M01/M14 A3030 RMK AO2 SLP260 T10061139 $
 
KAVP - Avoca/Wilkes B., Pennsylvania, USA
Distance from station: WNW 91mi, 147km
Updated: 01/17/2019 4:54pm
Overcast
Overcast
 Wind from S
Wind: S 5 mph , 7 km/h
Temperature: 28°F , -2°C
Wind Chill: 22°F , -6°C
Dew Point: 3°F , -16°C
Humidity: 34%
Barometer: 30.20 inHg , 1022.7 hPa
Clouds: Overcast
Visibility: 10 miles , 16 km
Cloud details: Overcast 11000 ft
2019/01/17 21:54 KAVP 172154Z 19004KT 10SM OVC110 M02/M16 A3020 RMK AO2 SLP239 T10171156
KHFD - Hartford/Brainar, Connecticut, USA
Distance from station: NE 96mi, 155km
Updated: 01/17/2019 4:53pm
Clear
Clear
 Wind from calm
Wind: Calm
Temperature: 27°F , -3°C
Dew Point: -4°F , -20°C
Humidity: 26%
Barometer: 30.31 inHg , 1026.4 hPa
Clouds: Clear
Visibility: 10 miles , 16 km
2019/01/17 21:53 KHFD 172153Z 00000KT 10SM CLR M03/M20 A3031 RMK AO2 SLP264 T10281200
 
KHTO - East Hampton, New York, USA
Distance from station: E 96mi, 155km
Updated: 01/17/2019 4:55pm
Mostly cloudy
Mostly cloudy
 Wind from E
Wind: E 3 mph , 6 km/h
Temperature: 28°F , -2°C
Dew Point: 5°F , -15°C
Humidity: 37%
Barometer: 30.31 inHg , 1026.4 hPa
Clouds: Mostly cloudy
Visibility: 10 miles , 16 km
Cloud details: Mostly cloudy 12000 ft
2019/01/17 21:55 KHTO 172155Z AUTO 08003KT 10SM BKN120 M02/M15 A3031 RMK AO2 T10231149
KACY - Atlantic City, New Jersey, USA
Distance from station: SSW 99mi, 160km
Updated: 01/17/2019 4:54pm
Mostly cloudy
Mostly cloudy
 Wind from NE
Wind: NE 5 mph , 7 km/h
Temperature: 32°F , 0°C
Wind Chill: 27°F , -3°C
Dew Point: 25°F , -4°C
Humidity: 75%
Barometer: 30.30 inHg , 1026.1 hPa
Clouds: Mostly cloudy
Visibility: 10 miles , 16 km
Cloud details: Mostly cloudy 11000 ft
2019/01/17 21:54 KACY 172154Z 04004KT 10SM BKN110 00/M04 A3030 RMK AO2 SLP259 T00001044